sensor_id;sensor_type;location;lat;lon;timestamp;P1;durP1;ratioP1;P2;durP2;ratioP2
7903;SDS011;3997;48.416;8.512;2023-08-24T00:01:20;8.43;;;7.63;;
7903;SDS011;3997;48.416;8.512;2023-08-24T00:03:46;7.80;;;7.03;;
7903;SDS011;3997;48.416;8.512;2023-08-24T00:06:13;7.68;;;7.07;;
7903;SDS011;3997;48.416;8.512;2023-08-24T00:08:40;7.90;;;7.05;;
7903;SDS011;3997;48.416;8.512;2023-08-24T00:11:06;7.60;;;7.00;;
7903;SDS011;3997;48.416;8.512;2023-08-24T00:13:35;7.60;;;7.00;;
7903;SDS011;3997;48.416;8.512;2023-08-24T00:16:01;7.70;;;7.07;;
7903;SDS011;3997;48.416;8.512;2023-08-24T00:18:29;7.93;;;6.80;;
7903;SDS011;3997;48.416;8.512;2023-08-24T00:20:55;7.45;;;6.95;;
7903;SDS011;3997;48.416;8.512;2023-08-24T00:23:22;7.53;;;7.00;;
7903;SDS011;3997;48.416;8.512;2023-08-24T00:25:48;7.55;;;6.70;;
7903;SDS011;3997;48.416;8.512;2023-08-24T00:28:15;8.05;;;7.10;;
7903;SDS011;3997;48.416;8.512;2023-08-24T00:30:42;7.90;;;7.35;;
7903;SDS011;3997;48.416;8.512;2023-08-24T00:33:09;8.43;;;7.30;;
7903;SDS011;3997;48.416;8.512;2023-08-24T00:35:35;8.30;;;7.50;;
7903;SDS011;3997;48.416;8.512;2023-08-24T00:38:02;8.30;;;7.50;;
7903;SDS011;3997;48.416;8.512;2023-08-24T00:40:29;8.05;;;7.38;;
7903;SDS011;3997;48.416;8.512;2023-08-24T00:42:55;9.43;;;7.68;;
7903;SDS011;3997;48.416;8.512;2023-08-24T00:45:22;7.70;;;7.07;;
7903;SDS011;3997;48.416;8.512;2023-08-24T00:47:50;9.23;;;7.65;;
7903;SDS011;3997;48.416;8.512;2023-08-24T00:50:17;9.23;;;7.60;;
7903;SDS011;3997;48.416;8.512;2023-08-24T00:52:44;8.50;;;7.70;;
7903;SDS011;3997;48.416;8.512;2023-08-24T00:55:10;8.45;;;7.95;;
7903;SDS011;3997;48.416;8.512;2023-08-24T00:57:37;8.52;;;7.85;;
7903;SDS011;3997;48.416;8.512;2023-08-24T01:00:04;8.40;;;7.75;;
7903;SDS011;3997;48.416;8.512;2023-08-24T01:02:33;8.13;;;7.53;;
7903;SDS011;3997;48.416;8.512;2023-08-24T01:05:01;7.35;;;6.85;;
7903;SDS011;3997;48.416;8.512;2023-08-24T01:07:29;12.38;;;8.25;;
7903;SDS011;3997;48.416;8.512;2023-08-24T01:09:56;7.95;;;7.30;;
7903;SDS011;3997;48.416;8.512;2023-08-24T01:12:24;7.60;;;7.00;;
7903;SDS011;3997;48.416;8.512;2023-08-24T01:14:55;8.25;;;7.45;;
7903;SDS011;3997;48.416;8.512;2023-08-24T01:17:25;8.57;;;7.25;;
7903;SDS011;3997;48.416;8.512;2023-08-24T01:19:54;7.47;;;6.88;;
7903;SDS011;3997;48.416;8.512;2023-08-24T01:22:27;7.60;;;6.90;;
7903;SDS011;3997;48.416;8.512;2023-08-24T01:24:59;7.88;;;7.20;;
7903;SDS011;3997;48.416;8.512;2023-08-24T01:27:29;7.20;;;6.60;;
7903;SDS011;3997;48.416;8.512;2023-08-24T01:29:59;7.95;;;7.35;;
7903;SDS011;3997;48.416;8.512;2023-08-24T01:32:26;7.50;;;6.60;;
7903;SDS011;3997;48.416;8.512;2023-08-24T01:34:53;8.73;;;6.93;;
7903;SDS011;3997;48.416;8.512;2023-08-24T01:37:19;7.70;;;6.97;;
7903;SDS011;3997;48.416;8.512;2023-08-24T01:39:46;8.35;;;7.30;;
7903;SDS011;3997;48.416;8.512;2023-08-24T01:42:18;8.40;;;6.22;;
7903;SDS011;3997;48.416;8.512;2023-08-24T01:44:47;7.03;;;6.53;;
7903;SDS011;3997;48.416;8.512;2023-08-24T01:47:15;7.55;;;6.85;;
7903;SDS011;3997;48.416;8.512;2023-08-24T01:49:43;7.13;;;6.55;;
7903;SDS011;3997;48.416;8.512;2023-08-24T01:52:10;7.60;;;6.90;;
7903;SDS011;3997;48.416;8.512;2023-08-24T01:54:37;8.25;;;7.45;;
7903;SDS011;3997;48.416;8.512;2023-08-24T01:57:04;7.60;;;7.10;;
7903;SDS011;3997;48.416;8.512;2023-08-24T01:59:30;7.35;;;6.85;;
7903;SDS011;3997;48.416;8.512;2023-08-24T02:01:58;7.47;;;6.82;;
7903;SDS011;3997;48.416;8.512;2023-08-24T02:04:25;7.20;;;6.70;;
7903;SDS011;3997;48.416;8.512;2023-08-24T02:06:51;8.13;;;7.10;;
7903;SDS011;3997;48.416;8.512;2023-08-24T02:09:18;6.93;;;6.53;;
7903;SDS011;3997;48.416;8.512;2023-08-24T02:11:44;7.75;;;7.05;;
7903;SDS011;3997;48.416;8.512;2023-08-24T02:14:10;7.70;;;7.07;;
7903;SDS011;3997;48.416;8.512;2023-08-24T02:16:37;7.80;;;7.10;;
7903;SDS011;3997;48.416;8.512;2023-08-24T02:19:06;8.50;;;7.80;;
7903;SDS011;3997;48.416;8.512;2023-08-24T02:21:34;7.80;;;7.20;;
7903;SDS011;3997;48.416;8.512;2023-08-24T02:24:01;8.13;;;7.53;;
7903;SDS011;3997;48.416;8.512;2023-08-24T02:26:27;7.15;;;6.50;;
7903;SDS011;3997;48.416;8.512;2023-08-24T02:28:54;7.78;;;7.22;;
7903;SDS011;3997;48.416;8.512;2023-08-24T02:31:20;7.70;;;7.20;;
7903;SDS011;3997;48.416;8.512;2023-08-24T02:33:46;8.32;;;7.63;;
7903;SDS011;3997;48.416;8.512;2023-08-24T02:36:15;7.70;;;7.10;;
7903;SDS011;3997;48.416;8.512;2023-08-24T02:38:42;7.50;;;6.90;;
7903;SDS011;3997;48.416;8.512;2023-08-24T02:41:08;7.80;;;6.90;;
7903;SDS011;3997;48.416;8.512;2023-08-24T02:43:36;7.30;;;6.80;;
7903;SDS011;3997;48.416;8.512;2023-08-24T02:46:02;7.47;;;6.97;;
7903;SDS011;3997;48.416;8.512;2023-08-24T02:48:29;7.38;;;6.85;;
7903;SDS011;3997;48.416;8.512;2023-08-24T02:50:56;7.65;;;6.95;;
7903;SDS011;3997;48.416;8.512;2023-08-24T02:53:24;8.18;;;7.47;;
7903;SDS011;3997;48.416;8.512;2023-08-24T02:55:51;8.82;;;8.05;;
7903;SDS011;3997;48.416;8.512;2023-08-24T02:58:17;8.13;;;7.50;;
7903;SDS011;3997;48.416;8.512;2023-08-24T03:00:44;7.95;;;7.25;;
7903;SDS011;3997;48.416;8.512;2023-08-24T03:03:10;7.35;;;6.85;;
7903;SDS011;3997;48.416;8.512;2023-08-24T03:05:36;8.68;;;7.07;;
7903;SDS011;3997;48.416;8.512;2023-08-24T03:08:03;7.47;;;6.88;;
7903;SDS011;3997;48.416;8.512;2023-08-24T03:10:31;7.13;;;6.53;;
7903;SDS011;3997;48.416;8.512;2023-08-24T03:13:00;7.43;;;6.75;;
7903;SDS011;3997;48.416;8.512;2023-08-24T03:15:29;7.32;;;6.65;;
7903;SDS011;3997;48.416;8.512;2023-08-24T03:17:56;9.43;;;7.05;;
7903;SDS011;3997;48.416;8.512;2023-08-24T03:20:22;8.02;;;7.22;;
7903;SDS011;3997;48.416;8.512;2023-08-24T03:22:48;7.38;;;6.82;;
7903;SDS011;3997;48.416;8.512;2023-08-24T03:25:15;7.55;;;6.95;;
7903;SDS011;3997;48.416;8.512;2023-08-24T03:27:43;10.23;;;7.30;;
7903;SDS011;3997;48.416;8.512;2023-08-24T03:30:10;7.47;;;6.97;;
7903;SDS011;3997;48.416;8.512;2023-08-24T03:32:36;9.65;;;7.63;;
7903;SDS011;3997;48.416;8.512;2023-08-24T03:35:03;7.07;;;6.65;;
7903;SDS011;3997;48.416;8.512;2023-08-24T03:37:30;7.72;;;6.57;;
7903;SDS011;3997;48.416;8.512;2023-08-24T03:39:56;7.32;;;6.75;;
7903;SDS011;3997;48.416;8.512;2023-08-24T03:42:22;7.75;;;7.10;;
7903;SDS011;3997;48.416;8.512;2023-08-24T03:44:50;7.13;;;6.53;;
7903;SDS011;3997;48.416;8.512;2023-08-24T03:47:17;7.25;;;6.60;;
7903;SDS011;3997;48.416;8.512;2023-08-24T03:49:43;8.20;;;7.45;;
7903;SDS011;3997;48.416;8.512;2023-08-24T03:52:10;7.78;;;6.97;;
7903;SDS011;3997;48.416;8.512;2023-08-24T03:54:36;7.95;;;7.35;;
7903;SDS011;3997;48.416;8.512;2023-08-24T03:57:03;7.45;;;6.57;;
7903;SDS011;3997;48.416;8.512;2023-08-24T03:59:29;7.22;;;6.63;;
7903;SDS011;3997;48.416;8.512;2023-08-24T04:01:57;7.43;;;6.82;;
7903;SDS011;3997;48.416;8.512;2023-08-24T04:04:26;7.35;;;6.82;;
7903;SDS011;3997;48.416;8.512;2023-08-24T04:06:53;8.15;;;7.35;;
7903;SDS011;3997;48.416;8.512;2023-08-24T04:09:19;7.78;;;7.07;;
7903;SDS011;3997;48.416;8.512;2023-08-24T04:11:46;7.57;;;6.97;;
7903;SDS011;3997;48.416;8.512;2023-08-24T04:14:12;7.45;;;6.75;;
7903;SDS011;3997;48.416;8.512;2023-08-24T04:16:39;7.70;;;6.90;;
7903;SDS011;3997;48.416;8.512;2023-08-24T04:19:08;8.82;;;7.70;;
7903;SDS011;3997;48.416;8.512;2023-08-24T04:21:34;7.18;;;6.68;;
7903;SDS011;3997;48.416;8.512;2023-08-24T04:24:01;7.18;;;6.47;;
7903;SDS011;3997;48.416;8.512;2023-08-24T04:26:27;7.15;;;6.60;;
7903;SDS011;3997;48.416;8.512;2023-08-24T04:28:54;8.00;;;7.30;;
7903;SDS011;3997;48.416;8.512;2023-08-24T04:31:20;6.93;;;6.43;;
7903;SDS011;3997;48.416;8.512;2023-08-24T04:33:47;7.55;;;6.80;;
7903;SDS011;3997;48.416;8.512;2023-08-24T04:36:15;6.93;;;6.32;;
7903;SDS011;3997;48.416;8.512;2023-08-24T04:38:41;7.95;;;7.22;;
7903;SDS011;3997;48.416;8.512;2023-08-24T04:41:09;8.10;;;7.30;;
7903;SDS011;3997;48.416;8.512;2023-08-24T04:43:37;7.75;;;7.15;;
7903;SDS011;3997;48.416;8.512;2023-08-24T04:46:04;7.65;;;6.95;;
7903;SDS011;3997;48.416;8.512;2023-08-24T04:48:30;8.68;;;6.75;;
7903;SDS011;3997;48.416;8.512;2023-08-24T04:50:59;8.43;;;7.57;;
7903;SDS011;3997;48.416;8.512;2023-08-24T04:53:27;7.75;;;7.05;;
7903;SDS011;3997;48.416;8.512;2023-08-24T04:55:53;7.47;;;6.78;;
7903;SDS011;3997;48.416;8.512;2023-08-24T04:58:20;7.53;;;6.93;;
7903;SDS011;3997;48.416;8.512;2023-08-24T05:00:46;7.60;;;6.90;;
7903;SDS011;3997;48.416;8.512;2023-08-24T05:03:13;7.85;;;7.25;;
7903;SDS011;3997;48.416;8.512;2023-08-24T05:05:40;7.85;;;7.25;;
7903;SDS011;3997;48.416;8.512;2023-08-24T05:08:06;7.55;;;6.97;;
7903;SDS011;3997;48.416;8.512;2023-08-24T05:10:36;7.15;;;6.65;;
7903;SDS011;3997;48.416;8.512;2023-08-24T05:13:03;7.78;;;7.07;;
7903;SDS011;3997;48.416;8.512;2023-08-24T05:15:29;7.70;;;7.00;;
7903;SDS011;3997;48.416;8.512;2023-08-24T05:17:56;7.30;;;6.80;;
7903;SDS011;3997;48.416;8.512;2023-08-24T05:20:24;7.55;;;6.95;;
7903;SDS011;3997;48.416;8.512;2023-08-24T05:22:50;7.57;;;6.88;;
7903;SDS011;3997;48.416;8.512;2023-08-24T05:25:17;7.50;;;6.88;;
7903;SDS011;3997;48.416;8.512;2023-08-24T05:27:45;7.30;;;6.80;;
7903;SDS011;3997;48.416;8.512;2023-08-24T05:30:11;7.63;;;6.93;;
7903;SDS011;3997;48.416;8.512;2023-08-24T05:32:38;7.40;;;6.80;;
7903;SDS011;3997;48.416;8.512;2023-08-24T05:35:05;8.05;;;7.30;;
7903;SDS011;3997;48.416;8.512;2023-08-24T05:37:31;8.10;;;7.40;;
7903;SDS011;3997;48.416;8.512;2023-08-24T05:39:58;9.70;;;7.43;;
7903;SDS011;3997;48.416;8.512;2023-08-24T05:42:26;8.07;;;7.38;;
7903;SDS011;3997;48.416;8.512;2023-08-24T05:44:54;7.72;;;7.15;;
7903;SDS011;3997;48.416;8.512;2023-08-24T05:47:20;9.73;;;7.05;;
7903;SDS011;3997;48.416;8.512;2023-08-24T05:49:46;7.25;;;6.75;;
7903;SDS011;3997;48.416;8.512;2023-08-24T05:52:13;7.63;;;7.13;;
7903;SDS011;3997;48.416;8.512;2023-08-24T05:54:39;7.78;;;7.18;;
7903;SDS011;3997;48.416;8.512;2023-08-24T05:57:06;11.30;;;6.97;;
7903;SDS011;3997;48.416;8.512;2023-08-24T05:59:32;7.47;;;6.78;;
7903;SDS011;3997;48.416;8.512;2023-08-24T06:02:00;6.80;;;6.30;;
7903;SDS011;3997;48.416;8.512;2023-08-24T06:04:27;6.88;;;6.35;;
7903;SDS011;3997;48.416;8.512;2023-08-24T06:06:53;9.27;;;7.25;;
7903;SDS011;3997;48.416;8.512;2023-08-24T06:09:20;7.40;;;6.85;;
7903;SDS011;3997;48.416;8.512;2023-08-24T06:11:46;7.18;;;6.57;;
7903;SDS011;3997;48.416;8.512;2023-08-24T06:14:12;7.43;;;6.93;;
7903;SDS011;3997;48.416;8.512;2023-08-24T06:16:40;7.47;;;6.80;;
7903;SDS011;3997;48.416;8.512;2023-08-24T06:19:08;6.72;;;6.18;;
7903;SDS011;3997;48.416;8.512;2023-08-24T06:21:35;7.38;;;6.78;;
7903;SDS011;3997;48.416;8.512;2023-08-24T06:24:01;7.97;;;7.35;;
7903;SDS011;3997;48.416;8.512;2023-08-24T06:26:28;7.57;;;6.88;;
7903;SDS011;3997;48.416;8.512;2023-08-24T06:28:55;7.32;;;6.82;;
7903;SDS011;3997;48.416;8.512;2023-08-24T06:31:21;7.07;;;6.47;;
7903;SDS011;3997;48.416;8.512;2023-08-24T06:33:49;6.97;;;6.47;;
7903;SDS011;3997;48.416;8.512;2023-08-24T06:36:17;7.97;;;7.25;;
7903;SDS011;3997;48.416;8.512;2023-08-24T06:38:44;7.55;;;6.93;;
7903;SDS011;3997;48.416;8.512;2023-08-24T06:41:10;7.35;;;6.90;;
7903;SDS011;3997;48.416;8.512;2023-08-24T06:43:37;7.20;;;6.70;;
7903;SDS011;3997;48.416;8.512;2023-08-24T06:46:04;6.85;;;6.32;;
7903;SDS011;3997;48.416;8.512;2023-08-24T06:48:33;7.63;;;6.82;;
7903;SDS011;3997;48.416;8.512;2023-08-24T06:50:59;7.07;;;6.40;;
7903;SDS011;3997;48.416;8.512;2023-08-24T06:53:27;7.82;;;7.10;;
7903;SDS011;3997;48.416;8.512;2023-08-24T06:55:54;7.55;;;6.95;;
7903;SDS011;3997;48.416;8.512;2023-08-24T06:58:20;7.13;;;6.63;;
7903;SDS011;3997;48.416;8.512;2023-08-24T07:00:46;6.97;;;6.32;;
7903;SDS011;3997;48.416;8.512;2023-08-24T07:03:15;7.35;;;6.75;;
7903;SDS011;3997;48.416;8.512;2023-08-24T07:05:42;7.40;;;6.63;;
7903;SDS011;3997;48.416;8.512;2023-08-24T07:08:08;7.60;;;7.00;;
7903;SDS011;3997;48.416;8.512;2023-08-24T07:10:36;7.72;;;7.13;;
7903;SDS011;3997;48.416;8.512;2023-08-24T07:13:04;6.82;;;6.32;;
7903;SDS011;3997;48.416;8.512;2023-08-24T07:15:31;7.75;;;7.15;;
7903;SDS011;3997;48.416;8.512;2023-08-24T07:17:59;7.63;;;7.03;;
7903;SDS011;3997;48.416;8.512;2023-08-24T07:20:26;7.50;;;7.00;;
7903;SDS011;3997;48.416;8.512;2023-08-24T07:22:52;7.00;;;6.40;;
7903;SDS011;3997;48.416;8.512;2023-08-24T07:25:19;7.28;;;6.60;;
7903;SDS011;3997;48.416;8.512;2023-08-24T07:27:48;6.50;;;5.90;;
7903;SDS011;3997;48.416;8.512;2023-08-24T07:30:14;7.13;;;6.50;;
7903;SDS011;3997;48.416;8.512;2023-08-24T07:32:40;6.60;;;5.90;;
7903;SDS011;3997;48.416;8.512;2023-08-24T07:35:07;6.15;;;5.60;;
7903;SDS011;3997;48.416;8.512;2023-08-24T07:37:34;5.97;;;5.57;;
7903;SDS011;3997;48.416;8.512;2023-08-24T07:40:00;6.18;;;5.78;;
7903;SDS011;3997;48.416;8.512;2023-08-24T07:42:29;5.80;;;5.30;;
7903;SDS011;3997;48.416;8.512;2023-08-24T07:44:56;7.03;;;6.30;;
7903;SDS011;3997;48.416;8.512;2023-08-24T07:47:23;6.10;;;5.60;;
7903;SDS011;3997;48.416;8.512;2023-08-24T07:49:50;6.32;;;5.72;;
7903;SDS011;3997;48.416;8.512;2023-08-24T07:52:16;6.43;;;5.88;;
7903;SDS011;3997;48.416;8.512;2023-08-24T07:54:43;7.35;;;5.80;;
7903;SDS011;3997;48.416;8.512;2023-08-24T07:57:10;6.30;;;5.82;;
7903;SDS011;3997;48.416;8.512;2023-08-24T07:59:37;5.90;;;5.38;;
7903;SDS011;3997;48.416;8.512;2023-08-24T08:02:05;5.45;;;4.95;;
7903;SDS011;3997;48.416;8.512;2023-08-24T08:04:32;4.95;;;4.55;;
7903;SDS011;3997;48.416;8.512;2023-08-24T08:06:59;5.25;;;4.82;;
7903;SDS011;3997;48.416;8.512;2023-08-24T08:09:25;6.20;;;5.75;;
7903;SDS011;3997;48.416;8.512;2023-08-24T08:11:51;6.50;;;5.93;;
7903;SDS011;3997;48.416;8.512;2023-08-24T08:14:18;5.93;;;5.40;;
7903;SDS011;3997;48.416;8.512;2023-08-24T08:16:45;7.28;;;5.47;;
7903;SDS011;3997;48.416;8.512;2023-08-24T08:19:13;6.07;;;5.35;;
7903;SDS011;3997;48.416;8.512;2023-08-24T08:21:40;5.68;;;5.10;;
7903;SDS011;3997;48.416;8.512;2023-08-24T08:24:06;5.30;;;4.80;;
7903;SDS011;3997;48.416;8.512;2023-08-24T08:26:33;4.85;;;4.43;;
7903;SDS011;3997;48.416;8.512;2023-08-24T08:29:00;5.20;;;4.70;;
7903;SDS011;3997;48.416;8.512;2023-08-24T08:31:27;5.18;;;4.78;;
7903;SDS011;3997;48.416;8.512;2023-08-24T08:33:53;5.88;;;4.47;;
7903;SDS011;3997;48.416;8.512;2023-08-24T08:36:21;5.25;;;4.80;;
7903;SDS011;3997;48.416;8.512;2023-08-24T08:38:48;5.35;;;4.95;;
7903;SDS011;3997;48.416;8.512;2023-08-24T08:41:14;5.70;;;5.03;;
7903;SDS011;3997;48.416;8.512;2023-08-24T08:43:41;5.32;;;4.80;;
7903;SDS011;3997;48.416;8.512;2023-08-24T08:46:07;5.43;;;4.90;;
7903;SDS011;3997;48.416;8.512;2023-08-24T08:48:34;5.13;;;4.72;;
7903;SDS011;3997;48.416;8.512;2023-08-24T08:51:02;5.55;;;5.05;;
7903;SDS011;3997;48.416;8.512;2023-08-24T08:53:30;5.47;;;5.00;;
7903;SDS011;3997;48.416;8.512;2023-08-24T08:55:58;6.03;;;5.45;;
7903;SDS011;3997;48.416;8.512;2023-08-24T08:58:28;5.15;;;4.82;;
7903;SDS011;3997;48.416;8.512;2023-08-24T09:00:55;5.82;;;4.60;;
7903;SDS011;3997;48.416;8.512;2023-08-24T09:03:25;4.93;;;4.40;;
7903;SDS011;3997;48.416;8.512;2023-08-24T09:05:52;5.32;;;4.88;;
7903;SDS011;3997;48.416;8.512;2023-08-24T09:08:19;4.90;;;4.60;;
7903;SDS011;3997;48.416;8.512;2023-08-24T09:10:47;6.97;;;4.82;;
7903;SDS011;3997;48.416;8.512;2023-08-24T09:13:14;6.88;;;5.03;;
7903;SDS011;3997;48.416;8.512;2023-08-24T09:15:40;5.43;;;5.00;;
7903;SDS011;3997;48.416;8.512;2023-08-24T09:18:06;5.70;;;5.05;;
7903;SDS011;3997;48.416;8.512;2023-08-24T09:20:33;5.68;;;5.15;;
7903;SDS011;3997;48.416;8.512;2023-08-24T09:23:00;6.53;;;5.18;;
7903;SDS011;3997;48.416;8.512;2023-08-24T09:25:26;5.13;;;4.82;;
7903;SDS011;3997;48.416;8.512;2023-08-24T09:27:57;5.93;;;5.35;;
7903;SDS011;3997;48.416;8.512;2023-08-24T09:30:27;5.38;;;4.88;;
7903;SDS011;3997;48.416;8.512;2023-08-24T09:32:54;6.47;;;6.03;;
7903;SDS011;3997;48.416;8.512;2023-08-24T09:35:21;5.78;;;5.10;;
7903;SDS011;3997;48.416;8.512;2023-08-24T09:37:49;5.20;;;4.90;;
7903;SDS011;3997;48.416;8.512;2023-08-24T09:40:15;5.70;;;5.25;;
7903;SDS011;3997;48.416;8.512;2023-08-24T09:42:42;6.05;;;5.00;;
7903;SDS011;3997;48.416;8.512;2023-08-24T09:45:12;6.22;;;5.70;;
7903;SDS011;3997;48.416;8.512;2023-08-24T09:47:39;6.28;;;5.57;;
7903;SDS011;3997;48.416;8.512;2023-08-24T09:50:06;5.32;;;4.93;;
7903;SDS011;3997;48.416;8.512;2023-08-24T09:52:33;6.22;;;5.57;;
7903;SDS011;3997;48.416;8.512;2023-08-24T09:55:02;6.10;;;5.60;;
7903;SDS011;3997;48.416;8.512;2023-08-24T09:57:31;4.72;;;4.35;;
7903;SDS011;3997;48.416;8.512;2023-08-24T09:59:57;6.35;;;5.47;;
7903;SDS011;3997;48.416;8.512;2023-08-24T10:02:25;5.43;;;5.13;;
7903;SDS011;3997;48.416;8.512;2023-08-24T10:04:54;6.32;;;5.38;;
7903;SDS011;3997;48.416;8.512;2023-08-24T10:07:21;5.75;;;5.32;;
7903;SDS011;3997;48.416;8.512;2023-08-24T10:09:51;5.93;;;5.43;;
7903;SDS011;3997;48.416;8.512;2023-08-24T10:12:20;5.22;;;4.80;;
7903;SDS011;3997;48.416;8.512;2023-08-24T10:14:51;5.35;;;4.90;;
7903;SDS011;3997;48.416;8.512;2023-08-24T10:17:20;5.80;;;5.40;;
7903;SDS011;3997;48.416;8.512;2023-08-24T10:19:48;5.32;;;4.93;;
7903;SDS011;3997;48.416;8.512;2023-08-24T10:22:16;5.85;;;5.35;;
7903;SDS011;3997;48.416;8.512;2023-08-24T10:24:44;5.22;;;4.82;;
7903;SDS011;3997;48.416;8.512;2023-08-24T10:27:11;5.90;;;5.40;;
7903;SDS011;3997;48.416;8.512;2023-08-24T10:29:38;5.93;;;5.40;;
7903;SDS011;3997;48.416;8.512;2023-08-24T10:32:04;6.53;;;5.82;;
7903;SDS011;3997;48.416;8.512;2023-08-24T10:34:31;5.65;;;5.20;;
7903;SDS011;3997;48.416;8.512;2023-08-24T10:37:07;5.75;;;5.28;;
7903;SDS011;3997;48.416;8.512;2023-08-24T10:39:34;7.43;;;5.40;;
7903;SDS011;3997;48.416;8.512;2023-08-24T10:42:03;7.47;;;5.82;;
7903;SDS011;3997;48.416;8.512;2023-08-24T10:44:35;8.43;;;5.35;;
7903;SDS011;3997;48.416;8.512;2023-08-24T10:49:58;7.70;;;5.50;;
7903;SDS011;3997;48.416;8.512;2023-08-24T10:52:30;6.68;;;5.72;;
7903;SDS011;3997;48.416;8.512;2023-08-24T10:54:57;7.35;;;5.78;;
7903;SDS011;3997;48.416;8.512;2023-08-24T10:57:24;7.95;;;5.88;;
7903;SDS011;3997;48.416;8.512;2023-08-24T10:59:59;7.50;;;5.53;;
7903;SDS011;3997;48.416;8.512;2023-08-24T11:02:26;6.20;;;5.22;;
7903;SDS011;3997;48.416;8.512;2023-08-24T11:05:05;5.75;;;5.00;;
7903;SDS011;3997;48.416;8.512;2023-08-24T11:07:33;7.28;;;5.47;;
7903;SDS011;3997;48.416;8.512;2023-08-24T11:09:59;5.72;;;5.25;;
7903;SDS011;3997;48.416;8.512;2023-08-24T11:15:28;5.22;;;4.82;;
7903;SDS011;3997;48.416;8.512;2023-08-24T11:20:36;5.43;;;5.03;;
7903;SDS011;3997;48.416;8.512;2023-08-24T11:23:04;5.68;;;5.18;;
7903;SDS011;3997;48.416;8.512;2023-08-24T11:25:32;5.50;;;4.97;;
7903;SDS011;3997;48.416;8.512;2023-08-24T11:28:01;5.68;;;5.18;;
7903;SDS011;3997;48.416;8.512;2023-08-24T11:30:29;5.70;;;5.20;;
7903;SDS011;3997;48.416;8.512;2023-08-24T11:32:55;5.63;;;5.05;;
7903;SDS011;3997;48.416;8.512;2023-08-24T11:35:22;5.28;;;4.88;;
7903;SDS011;3997;48.416;8.512;2023-08-24T11:37:50;8.10;;;5.35;;
7903;SDS011;3997;48.416;8.512;2023-08-24T11:40:18;5.20;;;4.70;;
7903;SDS011;3997;48.416;8.512;2023-08-24T11:42:45;6.10;;;4.90;;
7903;SDS011;3997;48.416;8.512;2023-08-24T11:45:12;6.07;;;5.57;;
7903;SDS011;3997;48.416;8.512;2023-08-24T11:47:39;5.05;;;4.60;;
7903;SDS011;3997;48.416;8.512;2023-08-24T11:50:07;5.85;;;5.20;;
7903;SDS011;3997;48.416;8.512;2023-08-24T11:52:38;5.63;;;5.07;;
7903;SDS011;3997;48.416;8.512;2023-08-24T11:55:05;5.38;;;4.97;;
7903;SDS011;3997;48.416;8.512;2023-08-24T11:57:35;6.97;;;5.53;;
7903;SDS011;3997;48.416;8.512;2023-08-24T12:00:02;5.53;;;4.93;;
7903;SDS011;3997;48.416;8.512;2023-08-24T12:02:29;5.65;;;4.68;;
7903;SDS011;3997;48.416;8.512;2023-08-24T12:04:56;5.70;;;4.75;;
7903;SDS011;3997;48.416;8.512;2023-08-24T12:07:23;5.80;;;5.40;;
7903;SDS011;3997;48.416;8.512;2023-08-24T12:09:51;5.75;;;4.90;;
7903;SDS011;3997;48.416;8.512;2023-08-24T12:12:19;5.28;;;4.88;;
7903;SDS011;3997;48.416;8.512;2023-08-24T12:14:47;8.45;;;5.18;;
7903;SDS011;3997;48.416;8.512;2023-08-24T12:17:14;6.85;;;4.85;;
7903;SDS011;3997;48.416;8.512;2023-08-24T12:19:41;6.53;;;5.22;;
7903;SDS011;3997;48.416;8.512;2023-08-24T12:22:12;5.05;;;4.65;;
7903;SDS011;3997;48.416;8.512;2023-08-24T12:24:42;5.82;;;5.18;;
7903;SDS011;3997;48.416;8.512;2023-08-24T12:27:16;4.88;;;4.35;;
7903;SDS011;3997;48.416;8.512;2023-08-24T12:29:44;5.63;;;4.97;;
7903;SDS011;3997;48.416;8.512;2023-08-24T12:32:11;5.30;;;4.80;;
7903;SDS011;3997;48.416;8.512;2023-08-24T12:34:40;7.85;;;5.10;;
7903;SDS011;3997;48.416;8.512;2023-08-24T12:37:07;6.30;;;5.10;;
7903;SDS011;3997;48.416;8.512;2023-08-24T12:39:34;5.10;;;4.65;;
7903;SDS011;3997;48.416;8.512;2023-08-24T12:44:45;5.72;;;4.97;;
7903;SDS011;3997;48.416;8.512;2023-08-24T12:47:14;5.28;;;4.72;;
7903;SDS011;3997;48.416;8.512;2023-08-24T12:49:40;5.78;;;5.00;;
7903;SDS011;3997;48.416;8.512;2023-08-24T12:52:07;6.15;;;5.18;;
7903;SDS011;3997;48.416;8.512;2023-08-24T12:54:33;5.68;;;5.18;;
7903;SDS011;3997;48.416;8.512;2023-08-24T12:56:59;5.60;;;5.10;;
7903;SDS011;3997;48.416;8.512;2023-08-24T12:59:26;5.93;;;5.53;;
7903;SDS011;3997;48.416;8.512;2023-08-24T13:01:52;6.22;;;5.45;;
7903;SDS011;3997;48.416;8.512;2023-08-24T13:04:20;6.13;;;5.35;;
7903;SDS011;3997;48.416;8.512;2023-08-24T13:06:47;5.75;;;5.10;;
7903;SDS011;3997;48.416;8.512;2023-08-24T13:09:13;7.15;;;5.13;;
7903;SDS011;3997;48.416;8.512;2023-08-24T13:11:40;5.40;;;4.80;;
7903;SDS011;3997;48.416;8.512;2023-08-24T13:14:06;5.88;;;5.38;;
7903;SDS011;3997;48.416;8.512;2023-08-24T13:16:33;5.75;;;5.18;;
7903;SDS011;3997;48.416;8.512;2023-08-24T13:18:59;8.95;;;5.32;;
7903;SDS011;3997;48.416;8.512;2023-08-24T13:21:27;7.82;;;5.82;;
7903;SDS011;3997;48.416;8.512;2023-08-24T13:23:54;6.45;;;5.85;;
7903;SDS011;3997;48.416;8.512;2023-08-24T13:26:20;6.00;;;5.50;;
7903;SDS011;3997;48.416;8.512;2023-08-24T13:28:48;6.00;;;5.45;;
7903;SDS011;3997;48.416;8.512;2023-08-24T13:31:14;6.38;;;5.78;;
7903;SDS011;3997;48.416;8.512;2023-08-24T13:33:41;5.47;;;5.07;;
7903;SDS011;3997;48.416;8.512;2023-08-24T13:36:07;5.93;;;5.30;;
7903;SDS011;3997;48.416;8.512;2023-08-24T13:38:35;7.38;;;5.40;;
7903;SDS011;3997;48.416;8.512;2023-08-24T13:41:02;7.03;;;5.40;;
7903;SDS011;3997;48.416;8.512;2023-08-24T13:43:28;5.95;;;5.53;;
7903;SDS011;3997;48.416;8.512;2023-08-24T13:45:55;5.68;;;5.15;;
7903;SDS011;3997;48.416;8.512;2023-08-24T13:48:21;7.18;;;5.65;;
7903;SDS011;3997;48.416;8.512;2023-08-24T13:50:49;6.00;;;5.30;;
7903;SDS011;3997;48.416;8.512;2023-08-24T13:53:16;6.40;;;5.00;;
7903;SDS011;3997;48.416;8.512;2023-08-24T13:55:44;5.50;;;5.00;;
7903;SDS011;3997;48.416;8.512;2023-08-24T13:58:10;5.68;;;5.13;;
7903;SDS011;3997;48.416;8.512;2023-08-24T14:00:37;5.43;;;4.93;;
7903;SDS011;3997;48.416;8.512;2023-08-24T14:03:03;5.88;;;5.18;;
7903;SDS011;3997;48.416;8.512;2023-08-24T14:05:30;5.05;;;4.60;;
7903;SDS011;3997;48.416;8.512;2023-08-24T14:07:59;6.60;;;4.80;;
7903;SDS011;3997;48.416;8.512;2023-08-24T14:10:25;9.68;;;4.53;;
7903;SDS011;3997;48.416;8.512;2023-08-24T14:12:53;7.18;;;4.82;;
7903;SDS011;3997;48.416;8.512;2023-08-24T14:15:19;7.22;;;4.75;;
7903;SDS011;3997;48.416;8.512;2023-08-24T14:17:46;8.57;;;4.90;;
7903;SDS011;3997;48.416;8.512;2023-08-24T14:20:12;5.05;;;4.57;;
7903;SDS011;3997;48.416;8.512;2023-08-24T14:22:39;6.53;;;5.00;;
7903;SDS011;3997;48.416;8.512;2023-08-24T14:25:06;8.05;;;4.97;;
7903;SDS011;3997;48.416;8.512;2023-08-24T14:27:32;7.97;;;4.75;;
7903;SDS011;3997;48.416;8.512;2023-08-24T14:30:00;6.30;;;4.75;;
7903;SDS011;3997;48.416;8.512;2023-08-24T14:32:27;6.82;;;4.85;;
7903;SDS011;3997;48.416;8.512;2023-08-24T14:34:53;6.75;;;5.55;;
7903;SDS011;3997;48.416;8.512;2023-08-24T14:37:19;7.88;;;4.78;;
7903;SDS011;3997;48.416;8.512;2023-08-24T14:39:46;7.63;;;5.03;;
7903;SDS011;3997;48.416;8.512;2023-08-24T14:42:12;6.22;;;5.35;;
7903;SDS011;3997;48.416;8.512;2023-08-24T14:44:39;7.20;;;4.93;;
7903;SDS011;3997;48.416;8.512;2023-08-24T14:47:07;5.97;;;5.18;;
7903;SDS011;3997;48.416;8.512;2023-08-24T14:49:33;6.57;;;5.20;;
7903;SDS011;3997;48.416;8.512;2023-08-24T14:52:00;9.90;;;5.32;;
7903;SDS011;3997;48.416;8.512;2023-08-24T14:54:26;7.20;;;4.65;;
7903;SDS011;3997;48.416;8.512;2023-08-24T14:56:52;11.80;;;5.00;;
7903;SDS011;3997;48.416;8.512;2023-08-24T14:59:19;6.32;;;5.18;;
7903;SDS011;3997;48.416;8.512;2023-08-24T15:01:45;5.53;;;5.03;;
7903;SDS011;3997;48.416;8.512;2023-08-24T15:04:13;5.50;;;4.90;;
7903;SDS011;3997;48.416;8.512;2023-08-24T15:06:39;7.10;;;4.80;;
7903;SDS011;3997;48.416;8.512;2023-08-24T15:09:06;5.82;;;5.28;;
7903;SDS011;3997;48.416;8.512;2023-08-24T15:11:32;7.32;;;5.18;;
7903;SDS011;3997;48.416;8.512;2023-08-24T15:13:59;5.63;;;5.22;;
7903;SDS011;3997;48.416;8.512;2023-08-24T15:16:25;6.30;;;5.78;;
7903;SDS011;3997;48.416;8.512;2023-08-24T15:18:52;6.18;;;5.68;;
7903;SDS011;3997;48.416;8.512;2023-08-24T15:21:20;5.38;;;4.88;;
7903;SDS011;3997;48.416;8.512;2023-08-24T15:23:46;5.82;;;5.20;;
7903;SDS011;3997;48.416;8.512;2023-08-24T15:26:12;5.75;;;5.35;;